Time;durP1;ratioP1;P1;durP2;ratioP2;P2;SDS_P1;SDS_P2;PMS_P1;PMS_P2;Temp;Humidity;BMP_temperature;BMP_pressure;BME280_temperature;BME280_humidity;BME280_pressure;Samples;Min_cycle;Max_cycle;Signal;HPM_P1;HPM_P2
2024/02/18 00:00:17;;;;;;;9.80;7.35;;;;;;;6.29;100.00;94499.16;1943157;28;20034;-80
2024/02/18 00:01:18;;;;;;;10.48;7.20;;;;;;;6.34;100.00;94500.75;1967152;27;20035;-81
2024/02/18 00:02:19;;;;;;;8.25;6.80;;;;;;;6.27;100.00;94502.16;1940316;28;20031;-80
2024/02/18 00:03:21;;;;;;;10.63;7.30;;;;;;;6.18;100.00;94506.94;1951652;27;22494;-79
2024/02/18 00:04:22;;;;;;;9.80;7.18;;;;;;;6.29;100.00;94505.22;1958091;27;20031;-80
2024/02/18 00:05:23;;;;;;;9.75;7.43;;;;;;;6.25;100.00;94504.41;1964827;27;20033;-79
2024/02/18 00:06:24;;;;;;;13.95;7.03;;;;;;;6.37;100.00;94508.78;1956974;28;21895;-79
2024/02/18 00:07:25;;;;;;;8.80;6.78;;;;;;;6.40;100.00;94501.97;1942804;27;20147;-81
2024/02/18 00:08:26;;;;;;;9.25;7.03;;;;;;;6.23;100.00;94500.56;1949637;27;22611;-80
2024/02/18 00:09:27;;;;;;;10.40;6.93;;;;;;;6.18;100.00;94498.19;1930999;28;20078;-80
2024/02/18 00:10:28;;;;;;;9.35;7.38;;;;;;;6.20;100.00;94496.72;1957864;28;20110;-79
2024/02/18 00:11:29;;;;;;;9.93;7.07;;;;;;;6.24;100.00;94497.56;1962481;27;20031;-79
2024/02/18 00:12:30;;;;;;;8.95;6.82;;;;;;;6.26;100.00;94499.84;1947398;27;22826;-79
2024/02/18 00:13:31;;;;;;;9.38;6.95;;;;;;;6.27;100.00;94504.03;1942435;28;20244;-79
2024/02/18 00:14:32;;;;;;;11.05;6.57;;;;;;;6.20;100.00;94506.59;1926576;28;22765;-82
2024/02/18 00:15:33;;;;;;;11.73;7.03;;;;;;;6.16;100.00;94495.91;1969242;27;20189;-81
2024/02/18 00:16:34;;;;;;;10.63;7.00;;;;;;;6.17;100.00;94496.66;2063298;28;20028;-81
2024/02/18 00:17:35;;;;;;;11.43;7.57;;;;;;;6.13;100.00;94488.63;2074445;28;20440;-82
2024/02/18 00:18:36;;;;;;;11.63;6.97;;;;;;;6.11;100.00;94490.88;2087264;28;20027;-82
2024/02/18 00:19:37;;;;;;;9.65;7.38;;;;;;;6.14;100.00;94492.06;2107092;27;20027;-81
2024/02/18 00:20:38;;;;;;;8.60;7.15;;;;;;;6.08;100.00;94488.16;2098352;28;20143;-80
2024/02/18 00:21:39;;;;;;;11.32;6.80;;;;;;;6.08;100.00;94491.59;2090926;28;20024;-81
2024/02/18 00:22:43;;;;;;;9.05;6.22;;;;;;;6.00;100.00;94496.00;2117111;27;20481;-81
2024/02/18 00:23:47;;;;;;;7.55;6.47;;;;;;;6.01;100.00;94497.56;2082430;28;20052;-81
2024/02/18 00:24:50;;;;;;;7.65;6.30;;;;;;;5.99;100.00;94499.00;2090821;28;20031;-80
2024/02/18 00:25:51;;;;;;;7.82;6.28;;;;;;;5.81;100.00;94490.69;2057196;27;20035;-80
2024/02/18 00:26:52;;;;;;;9.18;6.63;;;;;;;5.80;100.00;94494.47;2066517;27;20500;-81
2024/02/18 00:27:54;;;;;;;7.82;6.65;;;;;;;5.76;100.00;94493.63;2071447;27;20039;-81
2024/02/18 00:28:55;;;;;;;9.73;6.70;;;;;;;5.59;100.00;94489.53;2077376;27;20030;-80
2024/02/18 00:29:56;;;;;;;9.05;6.65;;;;;;;5.49;100.00;94496.16;2074400;28;20582;-81
2024/02/18 00:30:57;;;;;;;10.93;7.10;;;;;;;5.24;100.00;94495.66;2076689;28;20031;-82
2024/02/18 00:31:57;;;;;;;11.90;7.30;;;;;;;5.08;100.00;94486.97;2086558;27;20149;-79
2024/02/18 00:32:58;;;;;;;10.77;6.88;;;;;;;5.21;100.00;94484.97;2091093;27;20027;-81
2024/02/18 00:33:59;;;;;;;7.78;6.38;;;;;;;5.22;100.00;94489.16;2092244;27;20031;-80
2024/02/18 00:35:00;;;;;;;7.95;6.60;;;;;;;5.24;100.00;94482.41;2082373;28;20028;-79
2024/02/18 00:36:02;;;;;;;9.35;6.47;;;;;;;5.26;100.00;94484.69;2077426;28;24010;-80
2024/02/18 00:37:03;;;;;;;7.80;6.25;;;;;;;5.24;100.00;94473.69;2076040;28;20028;-80
2024/02/18 00:38:04;;;;;;;8.35;6.25;;;;;;;5.02;100.00;94480.41;2073113;28;20058;-82
2024/02/18 00:39:05;;;;;;;9.75;6.18;;;;;;;5.01;100.00;94482.31;2080574;28;20449;-80
2024/02/18 00:40:07;;;;;;;9.13;6.10;;;;;;;4.95;100.00;94483.66;2099245;28;20098;-79
2024/02/18 00:41:09;;;;;;;8.63;6.00;;;;;;;4.96;100.00;94479.94;2109370;27;20042;-79
2024/02/18 00:42:10;;;;;;;8.15;6.47;;;;;;;4.95;100.00;94475.72;2115680;27;20024;-82
2024/02/18 00:43:11;;;;;;;8.75;6.15;;;;;;;4.85;100.00;94484.22;2115591;28;20024;-81
2024/02/18 00:44:12;;;;;;;7.50;5.70;;;;;;;4.85;100.00;94478.91;2107015;28;20119;-82
2024/02/18 00:45:15;;;;;;;7.68;6.53;;;;;;;4.76;100.00;94480.97;2115107;28;20057;-79
2024/02/18 00:46:16;;;;;;;7.45;5.88;;;;;;;4.76;100.00;94480.97;2115319;28;20027;-81
2024/02/18 00:47:17;;;;;;;7.95;6.28;;;;;;;4.73;100.00;94477.13;2115559;27;20130;-81
2024/02/18 00:48:18;;;;;;;7.30;6.00;;;;;;;4.70;100.00;94474.44;2117628;27;20115;-82
2024/02/18 00:49:19;;;;;;;6.07;5.30;;;;;;;4.65;100.00;94477.31;2116055;28;20023;-82
2024/02/18 00:50:20;;;;;;;8.65;5.78;;;;;;;4.62;100.00;94478.03;2115863;28;20035;-81
2024/02/18 00:51:20;;;;;;;10.55;5.40;;;;;;;4.55;100.00;94482.03;2115388;28;20027;-80
2024/02/18 00:52:22;;;;;;;7.93;5.07;;;;;;;4.47;100.00;94477.66;2113513;28;20086;-82
2024/02/18 00:53:22;;;;;;;14.45;5.78;;;;;;;4.45;100.00;94474.59;2123771;27;20015;-81
2024/02/18 00:54:23;;;;;;;11.60;5.65;;;;;;;4.45;100.00;94469.31;2115227;28;20446;-81
2024/02/18 00:55:24;;;;;;;7.18;5.57;;;;;;;4.35;100.00;94471.72;2120653;27;20030;-80
2024/02/18 00:56:25;;;;;;;6.03;5.15;;;;;;;4.39;100.00;94477.84;2115141;28;20027;-83
2024/02/18 00:57:26;;;;;;;6.50;5.38;;;;;;;4.33;100.00;94484.53;2115136;28;20059;-82
2024/02/18 00:58:27;;;;;;;6.70;5.13;;;;;;;4.30;100.00;94480.66;2115188;28;20012;-81
2024/02/18 00:59:28;;;;;;;22.92;4.88;;;;;;;4.33;100.00;94484.53;2115201;28;20380;-81
2024/02/18 01:00:29;;;;;;;34.03;5.43;;;;;;;4.23;100.00;94494.50;2123429;27;20034;-80
2024/02/18 01:01:30;;;;;;;18.38;4.90;;;;;;;4.23;100.00;94491.88;2123851;27;20386;-82
2024/02/18 01:02:31;;;;;;;8.77;4.57;;;;;;;4.29;100.00;94495.00;2123520;27;20031;-81
2024/02/18 01:03:32;;;;;;;10.00;5.03;;;;;;;4.21;100.00;94488.78;2123664;27;20034;-83
2024/02/18 01:04:33;;;;;;;5.95;5.32;;;;;;;4.22;100.00;94490.34;2107026;28;20350;-83
2024/02/18 01:05:34;;;;;;;5.68;5.07;;;;;;;4.34;100.00;94489.47;2115181;28;20023;-81
2024/02/18 01:06:35;;;;;;;6.28;5.15;;;;;;;4.26;100.00;94493.84;2113982;28;20028;-80
2024/02/18 01:07:36;;;;;;;6.63;4.97;;;;;;;4.27;100.00;94494.59;2106817;28;20028;-81
2024/02/18 01:08:37;;;;;;;5.28;4.75;;;;;;;4.21;100.00;94486.13;2115385;28;20027;-81
2024/02/18 01:09:38;;;;;;;6.53;5.18;;;;;;;4.17;100.00;94487.94;2124305;27;20460;-82
2024/02/18 01:10:40;;;;;;;6.93;5.20;;;;;;;4.25;100.00;94491.50;2123580;27;20050;-83
2024/02/18 01:11:41;;;;;;;7.72;4.40;;;;;;;4.33;100.00;94493.22;2115061;28;20023;-81
2024/02/18 01:12:41;;;;;;;6.90;5.18;;;;;;;4.27;100.00;94490.06;2106844;28;20476;-82
2024/02/18 01:13:42;;;;;;;6.57;5.00;;;;;;;4.44;100.00;94485.56;2106739;28;20023;-81
2024/02/18 01:14:44;;;;;;;7.53;5.40;;;;;;;4.29;100.00;94484.44;2098251;28;20841;-81
2024/02/18 01:15:45;;;;;;;5.55;4.80;;;;;;;4.41;100.00;94492.28;2099829;28;20021;-81
2024/02/18 01:16:46;;;;;;;5.10;4.60;;;;;;;4.48;100.00;94481.88;2115111;28;20871;-83
2024/02/18 01:17:47;;;;;;;6.82;5.22;;;;;;;4.55;100.00;94481.25;2106610;28;20012;-82
2024/02/18 01:18:49;;;;;;;5.82;4.82;;;;;;;4.38;100.00;94481.59;2115424;28;20507;-82
2024/02/18 01:19:57;;;;;;;6.97;5.28;;;;;;;4.33;100.00;94477.34;2115705;27;20028;-81
2024/02/18 01:20:58;;;;;;;6.57;5.15;;;;;;;4.54;100.00;94477.09;2114994;28;20027;-82
2024/02/18 01:21:59;;;;;;;6.15;5.30;;;;;;;4.38;100.00;94477.09;2114977;28;20503;-81
2024/02/18 01:23:00;;;;;;;5.80;4.72;;;;;;;4.45;100.00;94471.19;2107240;28;20504;-82
2024/02/18 01:24:01;;;;;;;6.65;5.13;;;;;;;4.41;100.00;94465.81;2098820;28;20021;-82
2024/02/18 01:25:02;;;;;;;6.72;5.30;;;;;;;4.31;100.00;94476.16;2106320;28;20055;-83
2024/02/18 01:26:03;;;;;;;7.05;5.47;;;;;;;4.26;100.00;94480.59;2110605;28;20098;-80
2024/02/18 01:27:04;;;;;;;7.13;5.22;;;;;;;4.47;100.00;94476.91;2114606;28;20125;-82
2024/02/18 01:28:05;;;;;;;5.72;5.10;;;;;;;4.49;100.00;94470.16;2114619;28;20035;-82
2024/02/18 01:29:06;;;;;;;6.25;4.90;;;;;;;4.51;100.00;94473.22;2106698;28;20036;-83
2024/02/18 01:30:07;;;;;;;6.35;5.25;;;;;;;4.49;100.00;94472.06;2106364;28;20074;-82
2024/02/18 01:31:08;;;;;;;6.78;4.97;;;;;;;4.37;100.00;94474.78;2106892;28;20024;-83
2024/02/18 01:32:09;;;;;;;8.95;5.53;;;;;;;4.42;100.00;94470.00;2108889;28;20122;-80
2024/02/18 01:33:10;;;;;;;7.28;5.50;;;;;;;4.49;100.00;94470.16;2106407;28;20024;-82
2024/02/18 01:34:11;;;;;;;7.13;5.70;;;;;;;4.34;100.00;94462.22;2106092;28;20435;-81
2024/02/18 01:35:12;;;;;;;9.45;6.10;;;;;;;4.42;100.00;94469.22;2114576;28;20031;-81
2024/02/18 01:36:13;;;;;;;6.50;5.80;;;;;;;4.36;100.00;94473.25;2106331;28;20036;-82
2024/02/18 01:37:14;;;;;;;5.63;5.00;;;;;;;4.29;100.00;94466.66;2114735;28;20024;-80
2024/02/18 01:38:16;;;;;;;5.22;4.72;;;;;;;4.24;100.00;94466.94;2106301;28;20086;-83
2024/02/18 01:39:17;;;;;;;7.35;5.65;;;;;;;4.22;100.00;94465.75;2089609;28;20021;-84
2024/02/18 01:40:18;;;;;;;6.18;5.57;;;;;;;4.18;100.00;94462.25;2081570;28;20080;-83
2024/02/18 01:41:19;;;;;;;7.18;5.57;;;;;;;4.18;100.00;94468.31;2101888;28;20408;-80
2024/02/18 01:42:20;;;;;;;5.82;4.88;;;;;;;4.16;100.00;94465.22;2105949;28;20027;-81
2024/02/18 01:43:20;;;;;;;5.93;5.32;;;;;;;4.11;100.00;94462.06;2114232;28;20016;-82
2024/02/18 01:44:21;;;;;;;8.13;5.60;;;;;;;4.21;100.00;94466.84;2105928;28;20024;-82
2024/02/18 01:45:23;;;;;;;6.97;5.07;;;;;;;4.07;100.00;94463.84;2097502;28;20452;-80
2024/02/18 01:46:24;;;;;;;8.07;5.32;;;;;;;4.07;100.00;94455.91;2106050;28;20368;-80
2024/02/18 01:47:25;;;;;;;6.18;5.10;;;;;;;4.00;100.00;94465.22;2106218;28;20028;-81
2024/02/18 01:48:26;;;;;;;6.90;5.45;;;;;;;4.04;100.00;94460.03;2106336;28;20020;-82
2024/02/18 01:49:30;;;;;;;8.07;5.68;;;;;;;3.94;100.00;94471.09;2114772;28;20399;-82
2024/02/18 01:50:31;;;;;;;7.00;5.40;;;;;;;3.94;100.00;94463.91;2114619;28;20028;-81
2024/02/18 01:51:31;;;;;;;7.05;5.15;;;;;;;3.89;100.00;94466.06;2097959;28;20012;-81
2024/02/18 01:52:33;;;;;;;8.85;5.07;;;;;;;3.77;100.00;94465.00;2106393;28;20452;-82
2024/02/18 01:53:35;;;;;;;11.65;5.97;;;;;;;3.74;100.00;94478.91;2106276;28;20051;-82
2024/02/18 01:54:36;;;;;;;5.75;4.78;;;;;;;3.61;100.00;94463.47;2097776;28;20020;-83
2024/02/18 01:55:38;;;;;;;5.38;4.85;;;;;;;3.64;100.00;94475.97;2089255;28;20076;-80
2024/02/18 01:56:42;;;;;;;6.05;4.75;;;;;;;3.59;100.00;94473.59;2106301;28;20084;-82
2024/02/18 01:57:44;;;;;;;4.28;3.88;;;;;;;3.50;100.00;94465.78;2111131;28;20020;-81
2024/02/18 01:58:45;;;;;;;5.18;4.15;;;;;;;3.52;100.00;94467.00;2114592;28;20024;-82
2024/02/18 01:59:46;;;;;;;4.25;3.85;;;;;;;3.44;100.00;94469.81;2106092;28;20083;-79
2024/02/18 02:00:48;;;;;;;7.30;3.95;;;;;;;3.28;100.00;94464.44;2089570;28;20095;-82
2024/02/18 02:01:49;;;;;;;4.35;3.33;;;;;;;3.33;100.00;94471.38;2098234;28;20099;-82
2024/02/18 02:02:50;;;;;;;5.60;3.63;;;;;;;3.39;100.00;94472.69;2098307;28;20024;-82
2024/02/18 02:03:56;;;;;;;3.80;3.40;;;;;;;3.37;100.00;94467.72;2098016;28;20028;-83
2024/02/18 02:04:57;;;;;;;4.25;3.85;;;;;;;3.41;100.00;94465.19;2090783;28;20028;-81
2024/02/18 02:06:00;;;;;;;4.22;3.53;;;;;;;3.39;100.00;94475.31;2097597;28;20412;-81
2024/02/18 02:07:02;;;;;;;3.78;3.47;;;;;;;3.22;100.00;94468.44;2106465;28;20032;-80
2024/02/18 02:08:04;;;;;;;4.18;3.78;;;;;;;3.37;100.00;94466.94;2106178;28;20134;-81
2024/02/18 02:09:05;;;;;;;4.47;3.22;;;;;;;3.28;100.00;94465.22;2097935;28;20059;-80
2024/02/18 02:10:11;;;;;;;6.18;3.30;;;;;;;3.34;100.00;94468.41;2106375;28;20039;-80
2024/02/18 02:11:12;;;;;;;3.25;2.95;;;;;;;3.35;100.00;94469.94;2114571;28;20031;-82
2024/02/18 02:12:13;;;;;;;3.63;3.22;;;;;;;3.23;100.00;94468.09;2098030;28;20025;-81
2024/02/18 02:13:14;;;;;;;3.03;2.80;;;;;;;3.32;100.00;94467.97;2090442;28;20017;-81
2024/02/18 02:14:16;;;;;;;4.13;3.72;;;;;;;3.32;100.00;94462.69;2107080;28;20040;-79
2024/02/18 02:15:17;;;;;;;3.50;3.20;;;;;;;3.33;100.00;94471.38;2114962;28;20034;-80
2024/02/18 02:16:18;;;;;;;5.10;3.22;;;;;;;3.36;100.00;94466.19;2106147;28;20079;-80
2024/02/18 02:17:19;;;;;;;3.60;3.30;;;;;;;3.31;100.00;94463.78;2114371;28;20163;-81
2024/02/18 02:18:20;;;;;;;3.70;3.40;;;;;;;3.40;100.00;94472.34;2105899;28;20099;-80
2024/02/18 02:19:22;;;;;;;3.40;3.10;;;;;;;3.44;100.00;94461.88;2097797;28;20487;-80
2024/02/18 02:20:23;;;;;;;5.13;3.53;;;;;;;3.44;100.00;94465.28;2097886;28;20020;-81
2024/02/18 02:21:24;;;;;;;3.70;3.30;;;;;;;3.45;100.00;94453.59;2114389;28;20024;-78
2024/02/18 02:22:25;;;;;;;3.40;3.10;;;;;;;3.34;100.00;94467.66;2114633;28;20126;-79
2024/02/18 02:23:26;;;;;;;3.75;3.42;;;;;;;3.31;100.00;94460.38;2105931;28;20052;-82
2024/02/18 02:24:27;;;;;;;4.40;3.80;;;;;;;3.24;100.00;94463.59;2106171;28;20024;-80
2024/02/18 02:26:40;;;;;;;;;;;;;;;2.39;100.00;94465.25;2148415;27;20117;-82
2024/02/18 02:27:43;;;;;;;4.20;3.80;;;;;;;2.51;100.00;94451.31;2130531;27;20002;-82
2024/02/18 02:29:11;;;;;;;4.97;3.78;;;;;;;2.61;100.00;94452.72;2115941;28;20173;-80
2024/02/18 02:30:13;;;;;;;4.20;3.80;;;;;;;2.69;100.00;94454.47;2117220;28;20020;-82
2024/02/18 02:31:15;;;;;;;4.00;3.60;;;;;;;2.73;100.00;94448.19;2104903;28;20677;-80
2024/02/18 02:32:16;;;;;;;4.53;3.80;;;;;;;2.71;100.00;94452.25;2096668;28;20086;-83
2024/02/18 02:33:18;;;;;;;4.45;4.05;;;;;;;2.80;100.00;94449.50;2097085;28;20032;-81
2024/02/18 02:34:33;;;;;;;4.43;4.03;;;;;;;2.89;100.00;94452.78;2113319;28;20501;-81
2024/02/18 02:35:34;;;;;;;5.22;4.35;;;;;;;2.99;100.00;94453.09;2128691;27;20600;-81
2024/02/18 02:36:35;;;;;;;5.47;4.30;;;;;;;3.00;100.00;94453.88;2113194;28;20024;-82
2024/02/18 02:37:36;;;;;;;4.88;4.07;;;;;;;3.00;100.00;94454.63;2105056;28;20059;-82
2024/02/18 02:38:37;;;;;;;7.80;4.53;;;;;;;2.93;100.00;94451.78;2097259;28;20416;-82
2024/02/18 02:39:38;;;;;;;5.60;4.28;;;;;;;3.22;100.00;94447.31;2096281;28;20028;-80
2024/02/18 02:40:39;;;;;;;4.95;3.97;;;;;;;3.15;100.00;94452.38;2105363;28;20054;-81
2024/02/18 02:41:40;;;;;;;5.30;4.80;;;;;;;3.09;100.00;94445.81;2113321;28;20077;-79
2024/02/18 02:42:41;;;;;;;4.38;3.97;;;;;;;3.01;100.00;94447.47;2113255;28;20024;-81
2024/02/18 02:43:42;;;;;;;4.65;4.15;;;;;;;3.06;100.00;94441.19;2105454;28;20023;-78
2024/02/18 02:44:43;;;;;;;6.57;4.65;;;;;;;3.12;100.00;94445.16;2096501;28;20082;-80
2024/02/18 02:45:43;;;;;;;5.90;3.85;;;;;;;3.14;100.00;94440.28;2104731;28;20116;-82
2024/02/18 02:46:46;;;;;;;4.97;4.38;;;;;;;3.13;100.00;94444.81;2113391;28;20032;-83
2024/02/18 02:47:49;;;;;;;4.43;4.03;;;;;;;3.20;100.00;94452.91;2105087;28;20028;-81
2024/02/18 02:48:50;;;;;;;4.70;3.92;;;;;;;3.14;100.00;94442.94;2114001;28;20024;-82
2024/02/18 02:49:51;;;;;;;5.03;4.28;;;;;;;3.03;100.00;94453.97;2113334;28;20027;-81
2024/02/18 02:50:52;;;;;;;6.78;4.68;;;;;;;2.94;100.00;94444.63;2113485;28;20058;-79
2024/02/18 02:51:53;;;;;;;5.55;4.65;;;;;;;2.99;100.00;94447.06;2113399;28;20073;-80
2024/02/18 02:52:55;;;;;;;4.35;3.95;;;;;;;3.04;100.00;94446.81;2113285;28;20031;-82
2024/02/18 02:53:56;;;;;;;5.35;4.68;;;;;;;3.03;100.00;94448.69;2113364;28;20078;-82
2024/02/18 02:54:58;;;;;;;5.05;4.55;;;;;;;3.07;100.00;94448.75;2104897;28;20526;-83
2024/02/18 02:56:05;;;;;;;5.78;4.22;;;;;;;3.10;100.00;94448.09;2104550;28;20153;-83
2024/02/18 02:57:06;;;;;;;5.00;4.60;;;;;;;3.03;100.00;94446.06;2109253;28;20033;-83
2024/02/18 02:58:07;;;;;;;5.38;4.30;;;;;;;3.11;100.00;94451.50;2095309;28;20071;-81
2024/02/18 02:59:08;;;;;;;6.97;4.15;;;;;;;3.12;100.00;94451.19;2111334;28;20027;-81
2024/02/18 03:00:10;;;;;;;5.15;4.60;;;;;;;3.04;100.00;94449.47;2104768;28;20020;-80
2024/02/18 03:01:11;;;;;;;4.47;4.05;;;;;;;3.13;100.00;94442.16;2104872;28;20032;-81
2024/02/18 03:02:13;;;;;;;7.43;4.75;;;;;;;3.19;100.00;94440.81;2096540;28;20083;-80
2024/02/18 03:03:14;;;;;;;4.97;4.47;;;;;;;3.28;100.00;94454.66;2096513;28;20413;-82
2024/02/18 03:04:16;;;;;;;6.25;4.43;;;;;;;3.36;100.00;94439.00;2105007;28;20043;-82
2024/02/18 03:05:17;;;;;;;5.53;4.22;;;;;;;3.35;100.00;94437.47;2104641;28;20028;-81
2024/02/18 03:06:18;;;;;;;4.38;3.92;;;;;;;3.45;100.00;94447.53;2104413;28;20020;-80
2024/02/18 03:07:21;;;;;;;5.00;4.28;;;;;;;3.31;100.00;94447.94;2100498;28;20024;-82
2024/02/18 03:08:21;;;;;;;6.80;4.72;;;;;;;3.38;100.00;94447.34;2113368;28;20024;-81
2024/02/18 03:09:22;;;;;;;4.68;4.13;;;;;;;3.41;100.00;94436.88;2114819;28;20028;-82
2024/02/18 03:10:23;;;;;;;5.57;4.43;;;;;;;3.33;100.00;94437.78;2113713;28;20487;-80
2024/02/18 03:11:24;;;;;;;4.93;4.43;;;;;;;3.25;100.00;94433.44;2104788;28;20048;-80
2024/02/18 03:12:26;;;;;;;4.57;4.18;;;;;;;3.36;100.00;94437.13;2088416;28;20389;-82
2024/02/18 03:13:27;;;;;;;5.88;4.43;;;;;;;3.44;100.00;94433.56;2096359;28;20033;-82
2024/02/18 03:14:28;;;;;;;4.85;4.45;;;;;;;3.40;100.00;94431.94;2088316;28;20025;-81
2024/02/18 03:15:28;;;;;;;4.53;4.03;;;;;;;3.25;100.00;94436.06;2091145;28;20096;-82
2024/02/18 03:16:29;;;;;;;4.68;4.20;;;;;;;3.33;100.00;94440.44;2104772;28;20070;-83
2024/02/18 03:17:30;;;;;;;4.70;4.30;;;;;;;3.31;100.00;94426.78;2104756;28;20020;-83
2024/02/18 03:18:32;;;;;;;4.65;4.15;;;;;;;3.34;100.00;94443.84;2104866;28;20503;-81
2024/02/18 03:19:33;;;;;;;5.10;4.22;;;;;;;3.37;100.00;94429.97;2104897;28;20065;-80
2024/02/18 03:20:34;;;;;;;4.22;3.83;;;;;;;3.37;100.00;94430.72;2104763;28;20384;-80
2024/02/18 03:21:35;;;;;;;4.07;3.67;;;;;;;3.38;100.00;94431.47;2096483;28;20071;-80
2024/02/18 03:22:36;;;;;;;4.03;3.72;;;;;;;3.41;100.00;94428.19;2104816;28;20435;-81
2024/02/18 03:23:38;;;;;;;5.47;3.90;;;;;;;3.35;100.00;94425.00;2112972;28;20054;-81
2024/02/18 03:24:39;;;;;;;4.15;3.75;;;;;;;3.41;100.00;94422.88;2105025;28;20036;-82
2024/02/18 03:25:43;;;;;;;4.63;4.22;;;;;;;3.37;100.00;94422.78;2103755;28;20032;-80
2024/02/18 03:26:44;;;;;;;4.78;4.38;;;;;;;3.26;100.00;94424.41;2113248;28;20028;-80
2024/02/18 03:27:45;;;;;;;4.97;4.45;;;;;;;3.21;100.00;94422.00;2115630;28;20051;-81
2024/02/18 03:28:46;;;;;;;4.20;3.80;;;;;;;3.26;100.00;94427.03;2113831;28;20065;-80
2024/02/18 03:29:47;;;;;;;4.93;4.13;;;;;;;3.19;100.00;94418.91;2113062;28;20028;-82
2024/02/18 03:30:50;;;;;;;4.43;4.03;;;;;;;3.22;100.00;94421.66;2112996;28;20020;-83
2024/02/18 03:31:52;;;;;;;4.55;3.75;;;;;;;3.27;100.00;94420.63;2104475;28;20024;-82
2024/02/18 03:32:53;;;;;;;4.63;3.92;;;;;;;3.23;100.00;94420.53;2096166;28;20450;-83
2024/02/18 03:33:54;;;;;;;4.50;4.05;;;;;;;3.28;100.00;94416.88;2104367;28;20020;-82
2024/02/18 03:34:55;;;;;;;4.38;3.97;;;;;;;3.22;100.00;94420.88;2104453;28;20025;-80
2024/02/18 03:35:56;;;;;;;4.05;3.65;;;;;;;3.26;100.00;94419.13;2101612;28;20040;-83
2024/02/18 03:36:57;;;;;;;4.60;3.60;;;;;;;3.29;100.00;94426.34;2087866;28;20108;-81
2024/02/18 03:37:58;;;;;;;4.32;3.88;;;;;;;3.28;100.00;94422.19;2082742;28;20029;-82
2024/02/18 03:38:59;;;;;;;4.50;4.10;;;;;;;3.17;100.00;94427.19;2085669;28;20035;-80
2024/02/18 03:40:00;;;;;;;4.43;4.03;;;;;;;3.26;100.00;94413.81;2082504;28;20021;-82
2024/02/18 03:41:05;;;;;;;3.95;3.55;;;;;;;3.28;100.00;94411.59;2082048;28;20386;-81
2024/02/18 03:42:06;;;;;;;4.28;3.88;;;;;;;3.25;100.00;94412.28;2091882;28;20044;-82
2024/02/18 03:43:07;;;;;;;4.35;3.92;;;;;;;3.23;100.00;94417.91;2107178;28;20483;-80
2024/02/18 03:44:08;;;;;;;3.88;3.58;;;;;;;3.26;100.00;94421.75;2107422;28;20016;-82
2024/02/18 03:45:10;;;;;;;4.40;4.00;;;;;;;3.24;100.00;94422.06;2107370;28;20032;-82
2024/02/18 03:46:11;;;;;;;4.10;3.70;;;;;;;3.24;100.00;94423.94;2098178;28;20526;-81
2024/02/18 03:47:12;;;;;;;4.10;3.72;;;;;;;3.31;100.00;94424.16;2098601;28;20112;-82
2024/02/18 03:48:13;;;;;;;5.35;3.58;;;;;;;3.35;100.00;94416.31;2106979;28;20019;-82
2024/02/18 03:49:14;;;;;;;4.38;3.95;;;;;;;3.33;100.00;94414.00;2106693;28;20478;-83
2024/02/18 03:50:15;;;;;;;4.03;3.67;;;;;;;3.25;100.00;94426.28;2106870;28;20055;-81
2024/02/18 03:51:15;;;;;;;4.50;4.10;;;;;;;3.28;100.00;94411.59;2106565;28;20035;-82
2024/02/18 03:52:17;;;;;;;5.25;4.15;;;;;;;3.24;100.00;94416.03;2098169;28;20032;-81
2024/02/18 03:53:17;;;;;;;4.53;3.88;;;;;;;3.29;100.00;94415.78;2098426;28;20028;-81
2024/02/18 03:54:19;;;;;;;5.93;3.72;;;;;;;3.27;100.00;94408.19;2100258;28;20016;-81
2024/02/18 03:55:19;;;;;;;4.18;3.78;;;;;;;3.22;100.00;94408.44;2097881;28;20024;-81
2024/02/18 03:56:20;;;;;;;3.83;3.53;;;;;;;3.22;100.00;94410.31;2108850;28;20026;-81
2024/02/18 03:57:21;;;;;;;3.70;3.35;;;;;;;3.32;100.00;94412.47;2112205;28;20045;-80
2024/02/18 03:58:23;;;;;;;4.05;3.60;;;;;;;3.23;100.00;94411.84;2094166;28;20510;-83
2024/02/18 03:59:25;;;;;;;4.95;3.88;;;;;;;3.17;100.00;94418.50;2096413;28;20061;-81
2024/02/18 04:00:26;;;;;;;4.20;3.63;;;;;;;3.15;100.00;94412.75;2106631;28;20055;-84
2024/02/18 04:01:27;;;;;;;4.15;3.78;;;;;;;3.16;100.00;94409.81;2098382;28;20021;-82
2024/02/18 04:02:28;;;;;;;5.38;3.75;;;;;;;2.97;100.00;94412.28;2106389;28;20488;-81
2024/02/18 04:03:29;;;;;;;4.15;3.72;;;;;;;3.02;100.00;94417.31;2106057;28;20035;-81
2024/02/18 04:04:30;;;;;;;3.50;3.20;;;;;;;2.99;100.00;94415.34;2106494;28;20127;-81
2024/02/18 04:05:30;;;;;;;3.72;3.42;;;;;;;3.12;100.00;94408.94;2116170;27;20092;-83
2024/02/18 04:06:32;;;;;;;3.67;3.30;;;;;;;3.13;100.00;94415.75;2098175;28;20066;-80
2024/02/18 04:07:34;;;;;;;4.60;4.03;;;;;;;3.05;100.00;94413.25;2100315;28;20023;-83
2024/02/18 04:08:34;;;;;;;3.88;3.58;;;;;;;3.01;100.00;94427.09;2106947;28;20024;-80
2024/02/18 04:09:36;;;;;;;3.88;3.58;;;;;;;2.90;100.00;94418.13;2102704;28;20086;-81
2024/02/18 04:10:37;;;;;;;3.97;3.58;;;;;;;2.89;100.00;94415.81;2105061;28;20483;-82
2024/02/18 04:11:38;;;;;;;3.60;3.30;;;;;;;2.82;100.00;94416.41;2106801;28;20024;-82
2024/02/18 04:12:39;;;;;;;4.07;3.67;;;;;;;2.81;100.00;94419.34;2106706;28;20024;-82
2024/02/18 04:13:40;;;;;;;4.95;3.30;;;;;;;2.85;100.00;94420.97;2103607;28;20027;-82
2024/02/18 04:14:41;;;;;;;3.92;3.53;;;;;;;2.81;100.00;94419.34;2098601;28;20440;-82
2024/02/18 04:15:43;;;;;;;4.28;3.80;;;;;;;2.82;100.00;94418.25;2098628;28;20036;-81
2024/02/18 04:16:43;;;;;;;4.35;3.55;;;;;;;2.80;100.00;94418.59;2098672;28;20052;-80
2024/02/18 04:17:44;;;;;;;3.97;3.58;;;;;;;2.90;100.00;94414.72;2090139;28;20445;-82
2024/02/18 04:18:45;;;;;;;4.03;3.63;;;;;;;2.90;100.00;94417.38;2098724;28;20036;-81
2024/02/18 04:19:46;;;;;;;4.18;2.90;;;;;;;2.87;100.00;94413.50;2106967;28;20063;-82
2024/02/18 04:20:47;;;;;;;3.28;2.97;;;;;;;2.88;100.00;94414.28;2106840;28;20019;-81
2024/02/18 04:21:48;;;;;;;2.80;2.60;;;;;;;2.87;100.00;94418.03;2098624;28;20681;-81
2024/02/18 04:22:50;;;;;;;3.95;3.20;;;;;;;2.69;100.00;94418.28;2098635;28;20465;-82
2024/02/18 04:23:51;;;;;;;3.35;3.05;;;;;;;2.53;100.00;94418.19;2107151;28;20038;-82
2024/02/18 04:24:52;;;;;;;3.08;2.78;;;;;;;2.72;100.00;94417.63;2098444;28;20070;-82
2024/02/18 04:25:53;;;;;;;2.97;2.78;;;;;;;2.67;100.00;94420.47;2108229;28;20050;-81
2024/02/18 04:26:54;;;;;;;3.33;3.10;;;;;;;2.81;100.00;94409.56;2107539;28;20119;-82
2024/02/18 04:27:55;;;;;;;4.35;3.25;;;;;;;2.74;100.00;94414.66;2099727;28;20035;-80
2024/02/18 04:28:56;;;;;;;3.70;3.40;;;;;;;2.87;100.00;94408.22;2103710;28;20118;-80
2024/02/18 04:29:57;;;;;;;3.50;3.20;;;;;;;2.81;100.00;94414.06;2113269;28;20024;-82
2024/02/18 04:30:58;;;;;;;3.60;3.30;;;;;;;2.76;100.00;94412.44;2106615;28;20541;-81
2024/02/18 04:31:59;;;;;;;3.60;3.30;;;;;;;2.58;100.00;94406.63;2098631;28;20121;-80
2024/02/18 04:33:01;;;;;;;4.07;3.63;;;;;;;2.70;100.00;94405.84;2107517;28;20031;-81
2024/02/18 04:34:03;;;;;;;3.85;3.50;;;;;;;2.73;100.00;94407.84;2107066;28;20127;-82
2024/02/18 04:35:04;;;;;;;5.13;3.60;;;;;;;2.73;100.00;94410.47;2097059;28;20535;-82
2024/02/18 04:36:24;;;;;;;4.32;3.92;;;;;;;2.77;100.00;94408.72;2103158;28;20456;-83
2024/02/18 04:37:25;;;;;;;;;;;;;;;2.71;100.00;94410.78;2108440;28;20016;-78
2024/02/18 04:38:26;;;;;;;3.28;2.97;;;;;;;2.70;100.00;94405.84;2098932;28;19912;-82
2024/02/18 04:39:27;;;;;;;3.97;3.40;;;;;;;2.78;100.00;94407.59;2083184;28;20107;-81
2024/02/18 04:40:28;;;;;;;4.05;3.65;;;;;;;2.80;100.00;94400.09;2095585;28;20535;-82
2024/02/18 04:41:29;;;;;;;3.95;3.55;;;;;;;2.96;100.00;94405.47;2099396;28;20024;-82
2024/02/18 04:42:29;;;;;;;3.88;3.47;;;;;;;2.91;100.00;94408.34;2107188;28;20465;-81
2024/02/18 04:43:30;;;;;;;4.38;3.80;;;;;;;2.94;100.00;94405.81;2115750;28;20043;-80
2024/02/18 04:44:33;;;;;;;3.80;3.40;;;;;;;2.87;100.00;94405.59;2107104;28;20078;-80
2024/02/18 04:45:34;;;;;;;4.07;3.55;;;;;;;2.84;100.00;94414.16;2098265;28;20149;-81
2024/02/18 04:46:35;;;;;;;3.70;3.40;;;;;;;2.88;100.00;94411.63;2105635;28;20054;-81
2024/02/18 04:47:36;;;;;;;3.90;3.30;;;;;;;2.75;100.00;94405.63;2106412;28;20035;-80
2024/02/18 04:48:40;;;;;;;5.53;3.70;;;;;;;2.71;100.00;94408.16;2097799;28;20086;-82
2024/02/18 04:49:41;;;;;;;4.05;3.25;;;;;;;2.81;100.00;94406.94;2098206;28;20021;-82
2024/02/18 04:50:42;;;;;;;3.70;3.40;;;;;;;2.71;100.00;94402.88;2091317;28;20025;-82